Time;durP1;ratioP1;P1;durP2;ratioP2;P2;SDS_P1;SDS_P2;PMS_P1;PMS_P2;Temp;Humidity;BMP_temperature;BMP_pressure;BME280_temperature;BME280_humidity;BME280_pressure;Samples;Min_cycle;Max_cycle;Signal;HPM_P1;HPM_P2
2023/06/07 00:02:14;;;;;;;13.93;7.70;;;;;;;;;;10072876;28;20102;-67
2023/06/07 00:07:25;;;;;;;12.95;8.05;;;;;;;;;;10071681;28;20497;-70
2023/06/07 00:12:22;;;;;;;15.68;7.57;;;;;;;;;;10072343;28;20130;-68
2023/06/07 00:17:18;;;;;;;12.82;8.57;;;;;;;;;;10071914;28;20406;-68
2023/06/07 00:22:14;;;;;;;16.60;8.15;;;;;;;;;;10069084;28;20047;-67
2023/06/07 00:27:11;;;;;;;12.95;8.23;;;;;;;;;;10057028;28;20505;-69
2023/06/07 00:32:07;;;;;;;16.02;9.13;;;;;;;;;;10068710;28;20063;-68
2023/06/07 00:37:03;;;;;;;20.98;10.35;;;;;;;;;;10069767;28;20494;-68
2023/06/07 00:42:00;;;;;;;16.92;9.68;;;;;;;;;;10057569;28;20051;-65
2023/06/07 00:46:56;;;;;;;18.38;9.65;;;;;;;;;;10066645;28;20118;-67
2023/06/07 00:51:53;;;;;;;11.68;9.20;;;;;;;;;;10079290;28;20051;-66
2023/06/07 00:56:50;;;;;;;18.00;9.77;;;;;;;;;;10057247;28;20051;-69
2023/06/07 01:01:53;;;;;;;18.20;9.20;;;;;;;;;;10067766;28;20154;-69
2023/06/07 01:06:52;;;;;;;19.73;10.15;;;;;;;;;;10063270;28;20055;-68
2023/06/07 01:11:49;;;;;;;13.52;9.23;;;;;;;;;;10073653;28;20452;-68
2023/06/07 01:16:48;;;;;;;13.25;9.38;;;;;;;;;;10077268;28;20052;-66
2023/06/07 01:21:45;;;;;;;16.30;10.40;;;;;;;;;;10059838;28;20051;-66
2023/06/07 01:26:41;;;;;;;18.38;10.00;;;;;;;;;;10060566;28;20110;-66
2023/06/07 01:31:39;;;;;;;17.15;9.63;;;;;;;;;;10079205;28;20043;-65
2023/06/07 01:36:36;;;;;;;16.80;9.35;;;;;;;;;;10067134;28;20055;-66
2023/06/07 01:41:33;;;;;;;16.83;9.73;;;;;;;;;;10061171;28;20078;-71
2023/06/07 01:46:30;;;;;;;13.57;10.00;;;;;;;;;;10073088;28;20114;-70
2023/06/07 01:51:26;;;;;;;15.07;10.60;;;;;;;;;;10079499;28;20117;-68
2023/06/07 01:56:28;;;;;;;17.20;9.15;;;;;;;;;;10067649;28;20043;-69
2023/06/07 02:01:33;;;;;;;15.55;9.65;;;;;;;;;;10062678;28;20043;-71
2023/06/07 02:06:32;;;;;;;14.55;9.93;;;;;;;;;;10073522;28;20138;-70
2023/06/07 02:11:30;;;;;;;18.42;10.90;;;;;;;;;;10068252;28;20043;-68
2023/06/07 02:16:32;;;;;;;17.65;11.32;;;;;;;;;;10072364;28;20434;-68
2023/06/07 02:21:28;;;;;;;;;;;;;;;;;;10059134;28;20094;-70
2023/06/07 02:26:25;;;;;;;13.88;9.93;;;;;;;;;;10058147;28;20420;-70
2023/06/07 02:31:21;;;;;;;20.38;9.93;;;;;;;;;;10060013;28;20039;-70
2023/06/07 02:36:21;;;;;;;19.73;10.15;;;;;;;;;;10068755;28;20047;-70
2023/06/07 02:41:17;;;;;;;15.60;9.73;;;;;;;;;;10060632;28;20065;-68
2023/06/07 02:46:13;;;;;;;19.98;11.18;;;;;;;;;;10061888;28;20047;-68
2023/06/07 02:51:11;;;;;;;21.73;12.20;;;;;;;;;;10065925;28;20138;-67
2023/06/07 02:56:08;;;;;;;22.45;13.45;;;;;;;;;;10055055;28;20047;-68
2023/06/07 03:01:07;;;;;;;19.95;13.20;;;;;;;;;;10067125;28;20078;-68
2023/06/07 03:06:04;;;;;;;19.70;11.52;;;;;;;;;;10058051;28;20126;-68
2023/06/07 03:11:00;;;;;;;16.02;10.40;;;;;;;;;;10068010;28;20751;-67
2023/06/07 03:15:57;;;;;;;18.73;11.50;;;;;;;;;;10079706;28;20082;-68
2023/06/07 03:20:53;;;;;;;15.32;10.60;;;;;;;;;;10070988;28;20055;-68
2023/06/07 03:25:49;;;;;;;15.77;10.88;;;;;;;;;;10055811;28;20130;-68
2023/06/07 03:30:46;;;;;;;16.85;12.13;;;;;;;;;;10067471;28;20078;-70
2023/06/07 03:35:44;;;;;;;17.63;12.35;;;;;;;;;;10062305;28;20052;-71
2023/06/07 03:40:40;;;;;;;16.65;12.20;;;;;;;;;;10057715;28;20158;-73
2023/06/07 03:45:37;;;;;;;19.95;12.13;;;;;;;;;;10053227;28;20506;-73
2023/06/07 03:50:33;;;;;;;26.98;12.32;;;;;;;;;;10062272;28;20122;-74
2023/06/07 03:55:29;;;;;;;17.90;11.15;;;;;;;;;;10062000;28;20397;-71
2023/06/07 04:00:27;;;;;;;26.35;12.75;;;;;;;;;;10059687;28;20114;-74
2023/06/07 04:05:24;;;;;;;19.30;11.75;;;;;;;;;;10069322;28;20095;-71
2023/06/07 04:10:23;;;;;;;25.15;12.27;;;;;;;;;;10076742;28;20043;-72
2023/06/07 04:15:20;;;;;;;17.15;10.80;;;;;;;;;;10072683;28;20776;-74
2023/06/07 04:20:16;;;;;;;26.70;14.35;;;;;;;;;;10067828;28;20532;-74
2023/06/07 04:25:16;;;;;;;19.05;12.15;;;;;;;;;;10065918;28;20047;-73
2023/06/07 04:30:15;;;;;;;20.98;12.82;;;;;;;;;;10061032;28;20485;-74
2023/06/07 04:35:14;;;;;;;20.52;12.07;;;;;;;;;;10074308;28;20516;-74
2023/06/07 04:40:10;;;;;;;19.38;13.10;;;;;;;;;;10059929;28;20051;-74
2023/06/07 04:45:07;;;;;;;28.17;16.45;;;;;;;;;;10058147;28;20675;-73
2023/06/07 04:50:03;;;;;;;24.65;16.02;;;;;;;;;;10066070;28;20502;-74
2023/06/07 04:55:01;;;;;;;25.27;17.10;;;;;;;;;;10073527;28;20071;-75
2023/06/07 04:59:58;;;;;;;22.08;16.33;;;;;;;;;;10081110;28;20046;-74
2023/06/07 05:04:57;;;;;;;20.63;16.05;;;;;;;;;;10082182;28;20082;-74
2023/06/07 05:09:54;;;;;;;22.40;17.50;;;;;;;;;;10086894;28;20502;-74
2023/06/07 05:14:50;;;;;;;22.38;16.42;;;;;;;;;;10071771;28;20082;-75
2023/06/07 05:19:47;;;;;;;22.13;14.90;;;;;;;;;;10065191;28;20059;-75
2023/06/07 05:24:43;;;;;;;22.23;16.15;;;;;;;;;;10069309;28;20055;-75
2023/06/07 05:29:39;;;;;;;19.92;15.10;;;;;;;;;;10064486;28;20073;-75
2023/06/07 05:34:37;;;;;;;19.95;16.30;;;;;;;;;;10073452;28;20070;-74
2023/06/07 05:39:33;;;;;;;19.70;16.05;;;;;;;;;;10071021;28;20067;-75
2023/06/07 05:44:30;;;;;;;22.52;16.92;;;;;;;;;;10072229;28;20051;-75
2023/06/07 05:49:27;;;;;;;18.23;14.38;;;;;;;;;;10062420;28;20507;-75
2023/06/07 05:54:23;;;;;;;19.60;14.55;;;;;;;;;;10064311;28;20075;-74
2023/06/07 05:59:19;;;;;;;14.63;13.13;;;;;;;;;;10047309;28;20465;-75
2023/06/07 06:04:16;;;;;;;15.82;14.10;;;;;;;;;;10059917;28;20789;-75
2023/06/07 06:09:13;;;;;;;15.95;13.65;;;;;;;;;;10085158;28;20043;-75
2023/06/07 06:14:10;;;;;;;15.35;12.73;;;;;;;;;;10066057;28;20098;-74
2023/06/07 06:19:07;;;;;;;15.25;13.75;;;;;;;;;;10043531;28;20070;-75
2023/06/07 06:24:05;;;;;;;13.07;11.77;;;;;;;;;;10064065;28;20046;-75
2023/06/07 06:29:01;;;;;;;11.52;10.32;;;;;;;;;;10067501;28;21535;-75
2023/06/07 06:33:59;;;;;;;13.98;12.13;;;;;;;;;;10063560;28;20136;-75
2023/06/07 06:38:55;;;;;;;13.00;11.70;;;;;;;;;;10066810;28;20052;-75
2023/06/07 06:43:51;;;;;;;12.10;10.43;;;;;;;;;;10057742;28;20047;-75
2023/06/07 06:48:48;;;;;;;13.63;11.90;;;;;;;;;;10078604;28;20059;-75
2023/06/07 06:54:04;;;;;;;12.35;10.82;;;;;;;;;;10066717;28;20069;-76
2023/06/07 06:59:01;;;;;;;15.43;12.20;;;;;;;;;;10061203;28;20466;-75
2023/06/07 07:03:57;;;;;;;14.23;10.45;;;;;;;;;;10066682;28;20043;-74
2023/06/07 07:08:53;;;;;;;12.30;11.10;;;;;;;;;;10063226;28;20055;-75
2023/06/07 07:13:50;;;;;;;11.05;9.85;;;;;;;;;;10064135;28;20058;-75
2023/06/07 07:18:46;;;;;;;11.43;9.90;;;;;;;;;;10071126;28;20047;-75
2023/06/07 07:23:43;;;;;;;11.57;10.25;;;;;;;;;;10066670;28;20040;-75
2023/06/07 07:28:39;;;;;;;11.15;10.00;;;;;;;;;;10060798;28;20608;-75
2023/06/07 07:33:36;;;;;;;10.98;8.73;;;;;;;;;;10062399;28;20417;-75
2023/06/07 07:38:32;;;;;;;10.95;9.30;;;;;;;;;;10057494;28;20063;-74
2023/06/07 07:43:29;;;;;;;10.73;9.73;;;;;;;;;;10056480;28;20051;-74
2023/06/07 07:48:33;;;;;;;10.25;8.93;;;;;;;;;;10068551;28;20507;-73
2023/06/07 07:53:30;;;;;;;12.45;9.77;;;;;;;;;;10080272;28;20047;-74
2023/06/07 07:58:26;;;;;;;12.98;9.93;;;;;;;;;;10058609;28;20048;-74
2023/06/07 08:03:22;;;;;;;17.85;9.98;;;;;;;;;;10066868;28;20091;-74
2023/06/07 08:08:19;;;;;;;11.27;9.35;;;;;;;;;;10073485;28;20051;-74
2023/06/07 08:13:16;;;;;;;11.93;9.23;;;;;;;;;;10068009;28;20074;-74
2023/06/07 08:18:12;;;;;;;15.18;8.40;;;;;;;;;;10071102;28;20059;-75
2023/06/07 08:23:09;;;;;;;10.85;9.25;;;;;;;;;;10052956;28;20533;-75
2023/06/07 08:28:08;;;;;;;13.27;9.65;;;;;;;;;;10082161;28;20093;-75
2023/06/07 08:33:04;;;;;;;10.57;8.52;;;;;;;;;;10073559;28;20051;-75
2023/06/07 08:38:01;;;;;;;12.60;8.48;;;;;;;;;;10065840;28;20057;-74
2023/06/07 08:42:57;;;;;;;16.88;8.93;;;;;;;;;;10072312;28;20047;-74
2023/06/07 08:47:56;;;;;;;12.95;8.38;;;;;;;;;;10067889;28;20134;-74
2023/06/07 08:52:53;;;;;;;15.18;9.15;;;;;;;;;;10072642;28;20043;-73
2023/06/07 08:57:52;;;;;;;13.07;9.07;;;;;;;;;;10067994;28;20058;-73
2023/06/07 09:02:51;;;;;;;20.77;8.88;;;;;;;;;;10071562;28;20047;-74
2023/06/07 09:07:48;;;;;;;12.70;8.32;;;;;;;;;;10067210;28;20106;-74
2023/06/07 09:12:45;;;;;;;13.00;8.27;;;;;;;;;;10067217;28;20066;-74
2023/06/07 09:17:55;;;;;;;15.40;8.77;;;;;;;;;;10067221;28;20043;-74
2023/06/07 09:23:01;;;;;;;13.77;8.35;;;;;;;;;;10067385;28;20043;-74
2023/06/07 09:27:57;;;;;;;14.68;9.02;;;;;;;;;;10066008;28;20039;-75
2023/06/07 09:32:54;;;;;;;15.68;8.70;;;;;;;;;;10068477;28;20410;-74
2023/06/07 09:37:52;;;;;;;13.65;9.63;;;;;;;;;;10079961;28;20062;-74
2023/06/07 09:42:59;;;;;;;11.68;8.00;;;;;;;;;;10056790;28;20044;-75
2023/06/07 09:48:01;;;;;;;15.38;8.82;;;;;;;;;;10062314;28;20043;-74
2023/06/07 09:52:58;;;;;;;13.50;8.05;;;;;;;;;;10051071;28;20497;-74
2023/06/07 09:57:58;;;;;;;11.52;8.73;;;;;;;;;;10063960;28;20077;-75
2023/06/07 10:03:02;;;;;;;19.83;9.00;;;;;;;;;;10063457;28;20059;-75
2023/06/07 10:07:59;;;;;;;12.85;8.45;;;;;;;;;;10061296;28;20047;-76
2023/06/07 10:12:57;;;;;;;14.07;9.55;;;;;;;;;;10041078;28;20502;-74
2023/06/07 10:18:05;;;;;;;15.02;8.43;;;;;;;;;;10068853;28;20497;-75
2023/06/07 10:23:05;;;;;;;11.52;9.20;;;;;;;;;;10064176;28;20549;-75
2023/06/07 10:28:30;;;;;;;13.45;8.88;;;;;;;;;;10063741;28;20126;-75
2023/06/07 10:33:26;;;;;;;13.95;8.82;;;;;;;;;;10034927;28;20173;-75
2023/06/07 10:38:22;;;;;;;13.32;9.30;;;;;;;;;;10076108;28;20043;-75
2023/06/07 10:43:19;;;;;;;11.60;8.90;;;;;;;;;;10073735;28;20466;-75
2023/06/07 10:48:51;;;;;;;13.90;8.82;;;;;;;;;;10067773;28;20074;-75
2023/06/07 10:53:48;;;;;;;16.17;9.10;;;;;;;;;;10026279;28;20054;-75
2023/06/07 10:58:45;;;;;;;11.00;8.40;;;;;;;;;;10064376;28;20520;-75
2023/06/07 11:03:41;;;;;;;11.30;8.10;;;;;;;;;;10062859;28;20063;-75
2023/06/07 11:08:39;;;;;;;9.52;7.75;;;;;;;;;;10057861;28;20468;-75
2023/06/07 11:13:44;;;;;;;14.27;7.88;;;;;;;;;;10066145;28;20051;-75
2023/06/07 11:19:08;;;;;;;10.50;7.88;;;;;;;;;;10068941;28;20047;-75
2023/06/07 11:24:13;;;;;;;9.00;7.13;;;;;;;;;;10064606;28;20067;-74
2023/06/07 11:29:10;;;;;;;10.52;6.45;;;;;;;;;;10066113;28;20126;-74
2023/06/07 11:34:06;;;;;;;10.13;7.97;;;;;;;;;;10065738;28;20514;-74
2023/06/07 11:39:08;;;;;;;10.82;7.18;;;;;;;;;;10073181;28;20050;-74
2023/06/07 11:44:06;;;;;;;14.80;7.50;;;;;;;;;;10073383;28;20039;-74
2023/06/07 11:49:04;;;;;;;14.60;7.18;;;;;;;;;;10066681;28;20047;-74
2023/06/07 11:54:00;;;;;;;9.68;7.13;;;;;;;;;;10082323;28;20043;-75
2023/06/07 11:58:57;;;;;;;11.32;6.75;;;;;;;;;;10087706;28;20046;-74
2023/06/07 12:03:55;;;;;;;8.95;6.47;;;;;;;;;;10088922;28;20034;-74
2023/06/07 12:08:52;;;;;;;11.80;6.38;;;;;;;;;;10092485;28;20125;-74
2023/06/07 12:13:50;;;;;;;13.20;6.65;;;;;;;;;;10093991;28;20047;-75
2023/06/07 12:18:46;;;;;;;9.70;6.63;;;;;;;;;;10076366;28;20047;-75
2023/06/07 12:23:47;;;;;;;10.55;6.65;;;;;;;;;;10078767;28;20098;-75
2023/06/07 12:28:44;;;;;;;9.68;6.45;;;;;;;;;;10089878;28;20510;-75
2023/06/07 12:33:51;;;;;;;9.93;7.10;;;;;;;;;;10070324;28;20055;-75
2023/06/07 12:38:47;;;;;;;10.75;6.95;;;;;;;;;;10086070;28;20051;-75
2023/06/07 12:43:47;;;;;;;10.35;6.90;;;;;;;;;;10063637;28;20043;-74
2023/06/07 12:48:46;;;;;;;9.45;7.30;;;;;;;;;;10089004;28;20050;-75
2023/06/07 12:53:42;;;;;;;9.02;6.53;;;;;;;;;;10070786;28;20059;-76
2023/06/07 12:58:38;;;;;;;15.40;6.78;;;;;;;;;;10077739;28;20093;-75
2023/06/07 13:03:35;;;;;;;9.82;6.18;;;;;;;;;;10075937;28;20047;-74
2023/06/07 13:08:31;;;;;;;10.27;6.93;;;;;;;;;;10083681;28;20445;-75
2023/06/07 13:13:28;;;;;;;10.02;6.90;;;;;;;;;;10082089;28;20047;-74
2023/06/07 13:18:25;;;;;;;11.80;6.38;;;;;;;;;;10093997;28;20042;-74
2023/06/07 13:23:22;;;;;;;11.43;7.25;;;;;;;;;;10055948;28;20044;-76
2023/06/07 13:28:19;;;;;;;7.65;6.78;;;;;;;;;;10076798;28;20455;-75
2023/06/07 13:33:16;;;;;;;10.98;6.20;;;;;;;;;;10084738;28;20054;-74
2023/06/07 13:38:12;;;;;;;9.43;6.40;;;;;;;;;;10069795;28;20101;-74
2023/06/07 13:43:09;;;;;;;8.57;6.63;;;;;;;;;;10060237;28;20042;-75
2023/06/07 13:48:06;;;;;;;11.25;6.30;;;;;;;;;;10083716;28;20047;-73
2023/06/07 13:53:02;;;;;;;6.90;6.20;;;;;;;;;;10088365;28;20046;-74
2023/06/07 13:57:59;;;;;;;10.73;6.55;;;;;;;;;;10080647;28;20059;-74
2023/06/07 14:02:55;;;;;;;9.80;5.63;;;;;;;;;;10065561;28;20110;-74
2023/06/07 14:07:52;;;;;;;10.10;6.40;;;;;;;;;;10085380;28;20091;-73
2023/06/07 14:12:48;;;;;;;14.02;6.78;;;;;;;;;;10070302;28;20051;-73
2023/06/07 14:17:45;;;;;;;9.82;6.28;;;;;;;;;;10083483;28;20568;-73
2023/06/07 14:22:41;;;;;;;10.57;7.05;;;;;;;;;;10085960;28;20047;-74
2023/06/07 14:27:37;;;;;;;8.43;6.75;;;;;;;;;;10080355;28;20051;-74
2023/06/07 14:32:34;;;;;;;12.13;6.68;;;;;;;;;;10085770;28;20445;-74
2023/06/07 14:37:30;;;;;;;10.75;6.90;;;;;;;;;;10078036;28;20051;-74
2023/06/07 14:42:26;;;;;;;7.80;6.60;;;;;;;;;;10078106;28;20501;-74
2023/06/07 14:47:23;;;;;;;7.97;6.65;;;;;;;;;;10078316;28;20058;-74
2023/06/07 14:52:19;;;;;;;9.52;7.18;;;;;;;;;;10092442;28;20047;-74
2023/06/07 14:57:15;;;;;;;11.65;7.10;;;;;;;;;;10053042;28;20094;-74
2023/06/07 15:02:12;;;;;;;11.30;7.25;;;;;;;;;;10072294;28;20537;-74
2023/06/07 15:07:09;;;;;;;8.93;6.90;;;;;;;;;;10063519;28;20531;-74
2023/06/07 15:12:06;;;;;;;12.57;7.63;;;;;;;;;;10050986;28;20086;-74
2023/06/07 15:17:03;;;;;;;12.55;8.00;;;;;;;;;;10064924;28;20556;-74
2023/06/07 15:21:59;;;;;;;11.88;8.30;;;;;;;;;;10072506;28;20062;-74
2023/06/07 15:26:56;;;;;;;10.32;7.25;;;;;;;;;;10069717;28;20078;-74
2023/06/07 15:31:52;;;;;;;14.23;8.10;;;;;;;;;;10068119;28;20479;-75
2023/06/07 15:36:48;;;;;;;9.57;7.68;;;;;;;;;;10074721;28;20584;-75
2023/06/07 15:41:48;;;;;;;11.52;7.97;;;;;;;;;;10074545;28;20052;-75
2023/06/07 15:46:46;;;;;;;15.30;6.93;;;;;;;;;;10064533;28;20164;-75
2023/06/07 15:51:42;;;;;;;9.15;6.90;;;;;;;;;;10065333;28;20051;-76
2023/06/07 15:56:42;;;;;;;10.15;7.22;;;;;;;;;;10075488;28;20098;-76
2023/06/07 16:01:39;;;;;;;10.57;7.10;;;;;;;;;;10066670;28;20058;-75
2023/06/07 16:06:37;;;;;;;10.07;6.93;;;;;;;;;;10074750;28;20047;-75
2023/06/07 16:11:34;;;;;;;8.00;7.05;;;;;;;;;;10063166;28;20059;-74
2023/06/07 16:16:30;;;;;;;9.45;6.90;;;;;;;;;;10072724;28;20051;-74
2023/06/07 16:21:27;;;;;;;13.18;7.03;;;;;;;;;;10075617;28;20048;-74
2023/06/07 16:26:23;;;;;;;9.73;6.70;;;;;;;;;;10074631;28;20047;-74
2023/06/07 16:31:20;;;;;;;9.75;6.30;;;;;;;;;;10082621;28;20051;-74
2023/06/07 16:36:16;;;;;;;10.48;6.80;;;;;;;;;;10074759;28;20077;-74
2023/06/07 16:41:13;;;;;;;7.53;5.93;;;;;;;;;;10068856;28;20055;-74
2023/06/07 16:46:09;;;;;;;7.07;5.90;;;;;;;;;;10082020;28;20098;-74
2023/06/07 16:51:06;;;;;;;7.35;6.10;;;;;;;;;;10068993;28;20071;-75
2023/06/07 16:56:02;;;;;;;10.85;6.80;;;;;;;;;;10078424;28;20078;-74
2023/06/07 17:00:59;;;;;;;8.90;6.40;;;;;;;;;;10074356;28;20051;-75
2023/06/07 17:05:58;;;;;;;13.80;7.32;;;;;;;;;;10086077;28;20039;-74
2023/06/07 17:10:55;;;;;;;9.60;5.78;;;;;;;;;;10085187;28;20047;-75
2023/06/07 17:15:51;;;;;;;7.60;5.57;;;;;;;;;;10085271;28;20050;-75
2023/06/07 17:20:47;;;;;;;7.07;5.95;;;;;;;;;;10085431;28;20134;-75
2023/06/07 17:25:44;;;;;;;6.57;5.55;;;;;;;;;;10078174;28;20046;-74
2023/06/07 17:30:41;;;;;;;8.65;5.68;;;;;;;;;;10084912;28;20529;-74
2023/06/07 17:35:37;;;;;;;10.05;6.72;;;;;;;;;;10076333;28;20081;-75
2023/06/07 17:40:33;;;;;;;9.48;5.35;;;;;;;;;;10079850;28;20046;-75
2023/06/07 17:45:30;;;;;;;12.52;6.88;;;;;;;;;;10069879;28;20425;-75
2023/06/07 17:50:26;;;;;;;9.00;5.90;;;;;;;;;;10075213;28;20056;-75
2023/06/07 17:55:42;;;;;;;10.05;6.63;;;;;;;;;;10075306;28;20063;-74
2023/06/07 18:00:38;;;;;;;11.82;7.30;;;;;;;;;;10079192;28;20457;-74
2023/06/07 18:05:35;;;;;;;14.50;6.15;;;;;;;;;;10056761;28;20055;-73
2023/06/07 18:10:31;;;;;;;10.35;6.93;;;;;;;;;;10086066;28;20049;-74
2023/06/07 18:15:28;;;;;;;14.00;6.47;;;;;;;;;;10075202;28;20048;-74
2023/06/07 18:20:24;;;;;;;11.43;7.07;;;;;;;;;;10072765;28;20054;-75
2023/06/07 18:25:21;;;;;;;10.40;7.00;;;;;;;;;;10078928;28;20155;-74
2023/06/07 18:30:17;;;;;;;10.20;6.95;;;;;;;;;;10087254;28;20044;-75
2023/06/07 18:35:14;;;;;;;12.68;6.63;;;;;;;;;;10076404;28;20094;-74
2023/06/07 18:40:11;;;;;;;13.88;7.18;;;;;;;;;;10073009;28;20405;-74
2023/06/07 18:45:07;;;;;;;12.27;6.28;;;;;;;;;;10074564;28;20046;-74
2023/06/07 18:50:05;;;;;;;17.73;7.05;;;;;;;;;;10089853;28;20043;-74
2023/06/07 18:55:02;;;;;;;14.88;6.97;;;;;;;;;;10074052;28;20054;-74
2023/06/07 18:59:59;;;;;;;13.98;7.35;;;;;;;;;;10069970;28;20042;-75
2023/06/07 19:04:56;;;;;;;18.50;7.47;;;;;;;;;;10074671;28;20065;-75
2023/06/07 19:09:54;;;;;;;15.05;6.68;;;;;;;;;;10072050;28;20050;-74
2023/06/07 19:14:51;;;;;;;13.32;6.07;;;;;;;;;;10080158;28;20050;-75
2023/06/07 19:19:47;;;;;;;15.15;6.85;;;;;;;;;;10076695;28;20050;-75
2023/06/07 19:24:43;;;;;;;13.77;7.53;;;;;;;;;;10081716;28;20039;-74
2023/06/07 19:29:40;;;;;;;18.23;7.38;;;;;;;;;;10074034;28;20040;-75
2023/06/07 19:34:38;;;;;;;15.90;7.93;;;;;;;;;;10083736;28;20134;-74
2023/06/07 19:39:34;;;;;;;13.80;6.80;;;;;;;;;;10083169;28;20039;-75
2023/06/07 19:44:30;;;;;;;14.27;6.50;;;;;;;;;;10066681;28;20043;-75
2023/06/07 19:49:26;;;;;;;16.67;7.70;;;;;;;;;;10075520;28;20055;-74
2023/06/07 19:54:23;;;;;;;17.45;7.57;;;;;;;;;;10084661;28;20144;-74
2023/06/07 19:59:19;;;;;;;17.15;8.40;;;;;;;;;;10082374;28;20043;-74
2023/06/07 20:04:16;;;;;;;21.23;8.90;;;;;;;;;;10084266;28;20047;-74
2023/06/07 20:09:12;;;;;;;15.43;7.07;;;;;;;;;;10086965;28;20050;-75
2023/06/07 20:14:10;;;;;;;19.92;6.95;;;;;;;;;;10071957;28;20121;-75
2023/06/07 20:19:06;;;;;;;16.02;8.18;;;;;;;;;;10056362;28;20051;-74
2023/06/07 20:24:02;;;;;;;17.67;8.05;;;;;;;;;;10067258;28;20071;-75
2023/06/07 20:29:01;;;;;;;21.13;8.27;;;;;;;;;;10070421;28;20069;-66
2023/06/07 20:33:57;;;;;;;18.42;7.82;;;;;;;;;;10071377;28;20095;-68
2023/06/07 20:38:54;;;;;;;18.08;7.82;;;;;;;;;;10069326;28;20042;-68
2023/06/07 20:43:50;;;;;;;17.45;8.77;;;;;;;;;;10077388;28;20089;-68
2023/06/07 20:48:46;;;;;;;15.68;8.07;;;;;;;;;;10066838;28;20102;-68
2023/06/07 20:53:43;;;;;;;15.13;8.25;;;;;;;;;;10077168;28;20058;-69
2023/06/07 20:58:39;;;;;;;18.67;10.02;;;;;;;;;;10081198;28;20514;-68
2023/06/07 21:03:35;;;;;;;22.30;8.95;;;;;;;;;;10072567;28;20157;-68
2023/06/07 21:08:32;;;;;;;16.95;8.68;;;;;;;;;;10061497;28;20402;-68
2023/06/07 21:13:28;;;;;;;17.50;9.43;;;;;;;;;;10079161;28;20718;-68
2023/06/07 21:18:24;;;;;;;22.70;9.18;;;;;;;;;;10082930;28;20679;-68
2023/06/07 21:23:21;;;;;;;16.70;9.02;;;;;;;;;;10072134;28;20047;-67
2023/06/07 21:28:17;;;;;;;20.83;9.52;;;;;;;;;;10076299;28;20749;-67
2023/06/07 21:33:13;;;;;;;15.60;8.73;;;;;;;;;;10060627;28;20651;-67
2023/06/07 21:38:10;;;;;;;20.27;9.65;;;;;;;;;;10076310;28;20148;-68
2023/06/07 21:43:06;;;;;;;15.82;9.45;;;;;;;;;;10072671;28;20409;-68
2023/06/07 21:48:02;;;;;;;18.48;9.90;;;;;;;;;;10078456;28;20047;-68
2023/06/07 21:52:59;;;;;;;23.17;11.23;;;;;;;;;;10078725;28;20086;-69
2023/06/07 21:57:55;;;;;;;18.45;11.05;;;;;;;;;;10079118;28;20420;-67
2023/06/07 22:02:51;;;;;;;14.40;10.00;;;;;;;;;;10072549;28;20047;-68
2023/06/07 22:07:48;;;;;;;17.02;9.95;;;;;;;;;;10075306;28;20047;-67
2023/06/07 22:12:44;;;;;;;23.48;10.43;;;;;;;;;;10070682;28;20485;-67
2023/06/07 22:17:42;;;;;;;26.30;11.32;;;;;;;;;;10057152;28;20047;-67
2023/06/07 22:22:38;;;;;;;22.65;11.18;;;;;;;;;;10070606;28;20137;-67
2023/06/07 22:27:34;;;;;;;17.50;11.15;;;;;;;;;;10070282;28;20055;-69
2023/06/07 22:32:32;;;;;;;17.17;10.10;;;;;;;;;;10066938;28;20066;-69
2023/06/07 22:37:31;;;;;;;15.45;9.82;;;;;;;;;;10062582;28;20048;-69
2023/06/07 22:42:28;;;;;;;20.00;10.98;;;;;;;;;;10062411;28;20048;-68
2023/06/07 22:47:28;;;;;;;16.95;10.70;;;;;;;;;;10059831;28;20043;-68
2023/06/07 22:52:28;;;;;;;21.50;11.80;;;;;;;;;;10078442;28;20043;-69
2023/06/07 22:57:25;;;;;;;18.35;9.82;;;;;;;;;;10070821;28;20083;-69
2023/06/07 23:02:21;;;;;;;18.25;11.40;;;;;;;;;;10067744;28;20047;-69
2023/06/07 23:07:20;;;;;;;16.48;10.07;;;;;;;;;;10071835;28;20066;-69
2023/06/07 23:12:17;;;;;;;20.25;11.23;;;;;;;;;;10069194;28;20055;-69
2023/06/07 23:17:13;;;;;;;17.65;11.27;;;;;;;;;;10074539;28;20407;-71
2023/06/07 23:22:10;;;;;;;25.02;13.48;;;;;;;;;;10065450;28;21320;-69
2023/06/07 23:27:06;;;;;;;17.73;13.65;;;;;;;;;;10073979;28;20051;-68
2023/06/07 23:32:03;;;;;;;22.42;12.75;;;;;;;;;;10073767;28;20059;-68
2023/06/07 23:37:00;;;;;;;19.70;12.50;;;;;;;;;;10076064;28;20063;-68
2023/06/07 23:41:56;;;;;;;18.88;12.77;;;;;;;;;;10072694;28;20473;-68
2023/06/07 23:46:54;;;;;;;18.00;12.68;;;;;;;;;;10070853;28;20046;-69
2023/06/07 23:51:51;;;;;;;16.40;12.32;;;;;;;;;;10086195;28;20166;-69
2023/06/07 23:56:49;;;;;;;18.50;12.73;;;;;;;;;;10077151;28;20098;-69
